Terminal Aerodrome Forecast
Issued by NWS

Home | Current Version | Previous Version | Text Only | Print | Product List | Glossary On
Versions: 1 2 3 4 5 6 7 8 9 10 11 12 13 14 15 16 17 18 19 20 21 22 23 24 25
000
FTUS45 KBYZ 010520
TAFLVM
TAF
KLVM 010520Z 0106/0206 VRB06KT P6SM SKC
     FM011200 25010KT P6SM SKC
     FM011800 27016G23KT P6SM SKC
     FM012100 29011KT P6SM SKC
     FM020100 VRB06KT P6SM SKC=

USA.gov is the U.S. government's official web portal to all federal, state and local government web resources and services.